sensor_id;sensor_type;location;lat;lon;timestamp;pressure;altitude;pressure_sealevel;temperature;humidity
71638;BME280;59485;43.542;-5.676;2023-06-05T00:02:06;101501.09;;;19.32;nan
71638;BME280;59485;43.542;-5.676;2023-06-05T00:04:32;101510.34;;;19.44;nan
71638;BME280;59485;43.542;-5.676;2023-06-05T00:07:01;101498.22;;;19.38;nan
71638;BME280;59485;43.542;-5.676;2023-06-05T00:09:27;101481.63;;;19.32;nan
71638;BME280;59485;43.542;-5.676;2023-06-05T00:11:52;101485.31;;;19.26;nan
71638;BME280;59485;43.542;-5.676;2023-06-05T00:14:18;101494.91;;;19.30;nan
71638;BME280;59485;43.542;-5.676;2023-06-05T00:16:44;101479.94;;;19.31;nan
71638;BME280;59485;43.542;-5.676;2023-06-05T00:19:09;101486.09;;;19.33;nan
71638;BME280;59485;43.542;-5.676;2023-06-05T00:21:35;101479.84;;;19.37;nan
71638;BME280;59485;43.542;-5.676;2023-06-05T00:24:01;101477.44;;;19.23;nan
71638;BME280;59485;43.542;-5.676;2023-06-05T00:26:27;101475.75;;;19.22;nan
71638;BME280;59485;43.542;-5.676;2023-06-05T00:28:52;101476.44;;;19.17;nan
71638;BME280;59485;43.542;-5.676;2023-06-05T00:31:18;101477.50;;;19.16;nan
71638;BME280;59485;43.542;-5.676;2023-06-05T00:33:44;101490.72;;;19.21;nan
71638;BME280;59485;43.542;-5.676;2023-06-05T00:36:10;101486.47;;;19.18;nan
71638;BME280;59485;43.542;-5.676;2023-06-05T00:38:36;101482.47;;;19.14;nan
71638;BME280;59485;43.542;-5.676;2023-06-05T00:41:02;101493.59;;;19.14;nan
71638;BME280;59485;43.542;-5.676;2023-06-05T00:43:27;101483.31;;;19.15;nan
71638;BME280;59485;43.542;-5.676;2023-06-05T00:45:58;101473.66;;;19.17;nan
71638;BME280;59485;43.542;-5.676;2023-06-05T00:48:24;101486.88;;;19.22;nan
71638;BME280;59485;43.542;-5.676;2023-06-05T00:50:50;101471.09;;;19.16;nan
71638;BME280;59485;43.542;-5.676;2023-06-05T00:53:16;101471.91;;;19.23;nan
71638;BME280;59485;43.542;-5.676;2023-06-05T00:55:41;101472.75;;;19.23;nan
71638;BME280;59485;43.542;-5.676;2023-06-05T00:58:08;101478.69;;;19.27;nan
71638;BME280;59485;43.542;-5.676;2023-06-05T01:00:33;101464.41;;;19.23;nan
71638;BME280;59485;43.542;-5.676;2023-06-05T01:02:59;101459.38;;;19.14;nan
71638;BME280;59485;43.542;-5.676;2023-06-05T01:05:25;101474.03;;;19.21;nan
71638;BME280;59485;43.542;-5.676;2023-06-05T01:07:51;101476.81;;;19.21;nan
71638;BME280;59485;43.542;-5.676;2023-06-05T01:10:18;101461.53;;;19.11;nan
71638;BME280;59485;43.542;-5.676;2023-06-05T01:15:29;101480.91;;;19.18;nan
71638;BME280;59485;43.542;-5.676;2023-06-05T01:17:57;101458.75;;;19.11;nan
71638;BME280;59485;43.542;-5.676;2023-06-05T01:20:35;101470.63;;;19.19;nan
71638;BME280;59485;43.542;-5.676;2023-06-05T01:23:04;101473.56;;;19.24;nan
71638;BME280;59485;43.542;-5.676;2023-06-05T01:25:30;101470.19;;;19.22;nan
71638;BME280;59485;43.542;-5.676;2023-06-05T01:28:08;101455.25;;;19.16;nan
71638;BME280;59485;43.542;-5.676;2023-06-05T01:30:40;101464.63;;;19.22;nan
71638;BME280;59485;43.542;-5.676;2023-06-05T01:33:18;101452.88;;;19.20;nan
71638;BME280;59485;43.542;-5.676;2023-06-05T01:35:45;101457.44;;;19.14;nan
71638;BME280;59485;43.542;-5.676;2023-06-05T01:38:17;101461.00;;;19.21;nan
71638;BME280;59485;43.542;-5.676;2023-06-05T01:40:44;101459.38;;;19.14;nan
71638;BME280;59485;43.542;-5.676;2023-06-05T01:43:11;101454.41;;;19.16;nan
71638;BME280;59485;43.542;-5.676;2023-06-05T01:45:38;101446.94;;;19.16;nan
71638;BME280;59485;43.542;-5.676;2023-06-05T01:48:07;101451.72;;;19.27;nan
71638;BME280;59485;43.542;-5.676;2023-06-05T01:50:36;101441.13;;;19.18;nan
71638;BME280;59485;43.542;-5.676;2023-06-05T01:53:03;101438.59;;;19.16;nan
71638;BME280;59485;43.542;-5.676;2023-06-05T01:55:30;101447.00;;;19.09;nan
71638;BME280;59485;43.542;-5.676;2023-06-05T01:57:56;101444.09;;;19.04;nan
71638;BME280;59485;43.542;-5.676;2023-06-05T02:00:21;101439.06;;;18.95;nan
71638;BME280;59485;43.542;-5.676;2023-06-05T02:02:48;101444.84;;;18.93;nan
71638;BME280;59485;43.542;-5.676;2023-06-05T02:05:16;101437.09;;;18.77;nan
71638;BME280;59485;43.542;-5.676;2023-06-05T02:07:47;101445.97;;;18.86;nan
71638;BME280;59485;43.542;-5.676;2023-06-05T02:10:24;101450.59;;;18.92;nan
71638;BME280;59485;43.542;-5.676;2023-06-05T02:12:49;101454.09;;;18.87;nan
71638;BME280;59485;43.542;-5.676;2023-06-05T02:15:15;101439.66;;;18.79;nan
71638;BME280;59485;43.542;-5.676;2023-06-05T02:17:42;101447.56;;;18.75;nan
71638;BME280;59485;43.542;-5.676;2023-06-05T02:20:13;101448.66;;;18.74;nan
71638;BME280;59485;43.542;-5.676;2023-06-05T02:22:39;101437.38;;;18.69;nan
71638;BME280;59485;43.542;-5.676;2023-06-05T02:25:08;101441.22;;;18.68;nan
71638;BME280;59485;43.542;-5.676;2023-06-05T02:27:36;101445.72;;;18.69;nan
71638;BME280;59485;43.542;-5.676;2023-06-05T02:30:02;101435.50;;;18.63;nan
71638;BME280;59485;43.542;-5.676;2023-06-05T02:32:28;101452.16;;;18.63;nan
71638;BME280;59485;43.542;-5.676;2023-06-05T02:34:57;101434.50;;;18.57;nan
71638;BME280;59485;43.542;-5.676;2023-06-05T02:37:23;101427.88;;;18.52;nan
71638;BME280;59485;43.542;-5.676;2023-06-05T02:39:49;101445.78;;;18.56;nan
71638;BME280;59485;43.542;-5.676;2023-06-05T02:42:15;101426.00;;;18.46;nan
71638;BME280;59485;43.542;-5.676;2023-06-05T02:44:40;101432.84;;;18.43;nan
71638;BME280;59485;43.542;-5.676;2023-06-05T02:47:06;101436.03;;;18.47;nan
71638;BME280;59485;43.542;-5.676;2023-06-05T02:49:31;101442.00;;;18.50;nan
71638;BME280;59485;43.542;-5.676;2023-06-05T02:51:58;101432.19;;;18.48;nan
71638;BME280;59485;43.542;-5.676;2023-06-05T02:54:25;101435.59;;;18.50;nan
71638;BME280;59485;43.542;-5.676;2023-06-05T02:56:52;101433.25;;;18.47;nan
71638;BME280;59485;43.542;-5.676;2023-06-05T02:59:18;101427.06;;;18.45;nan
71638;BME280;59485;43.542;-5.676;2023-06-05T03:01:44;101436.66;;;18.49;nan
71638;BME280;59485;43.542;-5.676;2023-06-05T03:04:12;101426.91;;;18.40;nan
71638;BME280;59485;43.542;-5.676;2023-06-05T03:06:38;101424.13;;;18.40;nan
71638;BME280;59485;43.542;-5.676;2023-06-05T03:09:04;101421.19;;;18.34;nan
71638;BME280;59485;43.542;-5.676;2023-06-05T03:11:29;101424.78;;;18.42;nan
71638;BME280;59485;43.542;-5.676;2023-06-05T03:13:55;101420.91;;;18.43;nan
71638;BME280;59485;43.542;-5.676;2023-06-05T03:16:20;101425.38;;;18.44;nan
71638;BME280;59485;43.542;-5.676;2023-06-05T03:18:48;101394.78;;;18.25;nan
71638;BME280;59485;43.542;-5.676;2023-06-05T03:21:14;101426.28;;;18.37;nan
71638;BME280;59485;43.542;-5.676;2023-06-05T03:23:39;101431.19;;;18.42;nan
71638;BME280;59485;43.542;-5.676;2023-06-05T03:26:05;101439.44;;;18.49;nan
71638;BME280;59485;43.542;-5.676;2023-06-05T03:28:31;101435.63;;;18.43;nan
71638;BME280;59485;43.542;-5.676;2023-06-05T03:30:59;101428.84;;;18.39;nan
71638;BME280;59485;43.542;-5.676;2023-06-05T03:33:27;101423.69;;;18.43;nan
71638;BME280;59485;43.542;-5.676;2023-06-05T03:35:53;101426.69;;;18.41;nan
71638;BME280;59485;43.542;-5.676;2023-06-05T03:38:21;101447.13;;;18.47;nan
71638;BME280;59485;43.542;-5.676;2023-06-05T03:40:46;101441.59;;;18.47;nan
71638;BME280;59485;43.542;-5.676;2023-06-05T03:43:12;101428.44;;;18.35;nan
71638;BME280;59485;43.542;-5.676;2023-06-05T03:45:38;101446.06;;;18.48;nan
71638;BME280;59485;43.542;-5.676;2023-06-05T03:48:06;101423.72;;;18.36;nan
71638;BME280;59485;43.542;-5.676;2023-06-05T03:50:32;101422.44;;;18.38;nan
71638;BME280;59485;43.542;-5.676;2023-06-05T03:52:59;101418.97;;;18.43;nan
71638;BME280;59485;43.542;-5.676;2023-06-05T03:55:36;101413.41;;;18.43;nan
71638;BME280;59485;43.542;-5.676;2023-06-05T03:58:16;101397.28;;;18.33;nan
71638;BME280;59485;43.542;-5.676;2023-06-05T04:00:43;101423.22;;;18.46;nan
71638;BME280;59485;43.542;-5.676;2023-06-05T04:03:09;101408.72;;;18.44;nan
71638;BME280;59485;43.542;-5.676;2023-06-05T04:05:36;101420.06;;;18.42;nan
71638;BME280;59485;43.542;-5.676;2023-06-05T04:08:03;101401.75;;;18.34;nan
71638;BME280;59485;43.542;-5.676;2023-06-05T04:10:29;101427.25;;;18.50;nan
71638;BME280;59485;43.542;-5.676;2023-06-05T04:12:54;101429.56;;;18.53;nan
71638;BME280;59485;43.542;-5.676;2023-06-05T04:15:21;101423.16;;;18.52;nan
71638;BME280;59485;43.542;-5.676;2023-06-05T04:17:47;101400.63;;;18.42;nan
71638;BME280;59485;43.542;-5.676;2023-06-05T04:20:12;101416.38;;;18.48;nan
71638;BME280;59485;43.542;-5.676;2023-06-05T04:22:42;101419.75;;;18.57;nan
71638;BME280;59485;43.542;-5.676;2023-06-05T04:25:08;101418.22;;;18.54;nan
71638;BME280;59485;43.542;-5.676;2023-06-05T04:27:37;101422.53;;;18.57;nan
71638;BME280;59485;43.542;-5.676;2023-06-05T04:30:07;101422.72;;;18.55;nan
71638;BME280;59485;43.542;-5.676;2023-06-05T04:32:34;101415.69;;;18.53;nan
71638;BME280;59485;43.542;-5.676;2023-06-05T04:35:03;101420.38;;;18.52;nan
71638;BME280;59485;43.542;-5.676;2023-06-05T04:37:28;101412.53;;;18.49;nan
71638;BME280;59485;43.542;-5.676;2023-06-05T04:39:54;101404.00;;;18.44;nan
71638;BME280;59485;43.542;-5.676;2023-06-05T04:42:21;101413.81;;;18.47;nan
71638;BME280;59485;43.542;-5.676;2023-06-05T04:44:57;101413.81;;;18.47;nan
71638;BME280;59485;43.542;-5.676;2023-06-05T04:47:29;101424.25;;;18.51;nan
71638;BME280;59485;43.542;-5.676;2023-06-05T04:50:01;101420.63;;;18.51;nan
71638;BME280;59485;43.542;-5.676;2023-06-05T04:52:30;101427.03;;;18.51;nan
71638;BME280;59485;43.542;-5.676;2023-06-05T04:54:55;101428.78;;;18.46;nan
71638;BME280;59485;43.542;-5.676;2023-06-05T04:57:23;101424.06;;;18.46;nan
71638;BME280;59485;43.542;-5.676;2023-06-05T04:59:51;101419.44;;;18.40;nan
71638;BME280;59485;43.542;-5.676;2023-06-05T05:02:17;101423.06;;;18.41;nan
71638;BME280;59485;43.542;-5.676;2023-06-05T05:04:43;101422.22;;;18.40;nan
71638;BME280;59485;43.542;-5.676;2023-06-05T05:07:08;101435.88;;;18.42;nan
71638;BME280;59485;43.542;-5.676;2023-06-05T05:09:41;101420.34;;;18.34;nan
71638;BME280;59485;43.542;-5.676;2023-06-05T05:12:07;101435.25;;;18.40;nan
71638;BME280;59485;43.542;-5.676;2023-06-05T05:14:33;101426.28;;;18.37;nan
71638;BME280;59485;43.542;-5.676;2023-06-05T05:16:59;101407.13;;;18.29;nan
71638;BME280;59485;43.542;-5.676;2023-06-05T05:19:26;101427.53;;;18.42;nan
71638;BME280;59485;43.542;-5.676;2023-06-05T05:21:52;101417.78;;;18.32;nan
71638;BME280;59485;43.542;-5.676;2023-06-05T05:24:17;101435.88;;;18.42;nan
71638;BME280;59485;43.542;-5.676;2023-06-05T05:26:43;101427.06;;;18.45;nan
71638;BME280;59485;43.542;-5.676;2023-06-05T05:29:09;101427.06;;;18.45;nan
71638;BME280;59485;43.542;-5.676;2023-06-05T05:31:34;101419.66;;;18.38;nan
71638;BME280;59485;43.542;-5.676;2023-06-05T05:34:00;101451.56;;;18.54;nan
71638;BME280;59485;43.542;-5.676;2023-06-05T05:36:27;101450.09;;;18.52;nan
71638;BME280;59485;43.542;-5.676;2023-06-05T05:38:55;101435.41;;;18.45;nan
71638;BME280;59485;43.542;-5.676;2023-06-05T05:41:21;101446.50;;;18.45;nan
71638;BME280;59485;43.542;-5.676;2023-06-05T05:43:47;101458.19;;;18.53;nan
71638;BME280;59485;43.542;-5.676;2023-06-05T05:46:13;101440.66;;;18.53;nan
71638;BME280;59485;43.542;-5.676;2023-06-05T05:48:39;101444.31;;;18.53;nan
71638;BME280;59485;43.542;-5.676;2023-06-05T05:51:05;101452.63;;;18.60;nan
71638;BME280;59485;43.542;-5.676;2023-06-05T05:53:31;101449.22;;;18.58;nan
71638;BME280;59485;43.542;-5.676;2023-06-05T05:55:57;101446.44;;;18.58;nan
71638;BME280;59485;43.542;-5.676;2023-06-05T05:58:22;101448.16;;;18.59;nan
71638;BME280;59485;43.542;-5.676;2023-06-05T06:00:48;101452.16;;;18.63;nan
71638;BME280;59485;43.542;-5.676;2023-06-05T06:03:14;101452.56;;;18.66;nan
71638;BME280;59485;43.542;-5.676;2023-06-05T06:05:40;101452.13;;;18.69;nan
71638;BME280;59485;43.542;-5.676;2023-06-05T06:08:05;101465.94;;;18.76;nan
71638;BME280;59485;43.542;-5.676;2023-06-05T06:10:32;101448.66;;;18.74;nan
71638;BME280;59485;43.542;-5.676;2023-06-05T06:12:58;101459.75;;;18.74;nan
71638;BME280;59485;43.542;-5.676;2023-06-05T06:15:23;101458.84;;;18.80;nan
71638;BME280;59485;43.542;-5.676;2023-06-05T06:17:49;101455.50;;;18.71;nan
71638;BME280;59485;43.542;-5.676;2023-06-05T06:20:15;101468.44;;;18.84;nan
71638;BME280;59485;43.542;-5.676;2023-06-05T06:22:44;101463.78;;;18.78;nan
71638;BME280;59485;43.542;-5.676;2023-06-05T06:25:14;101469.94;;;18.80;nan
71638;BME280;59485;43.542;-5.676;2023-06-05T06:27:43;101461.25;;;18.77;nan
71638;BME280;59485;43.542;-5.676;2023-06-05T06:30:13;101446.50;;;18.76;nan
71638;BME280;59485;43.542;-5.676;2023-06-05T06:32:39;101472.84;;;18.92;nan
71638;BME280;59485;43.542;-5.676;2023-06-05T06:35:05;101450.69;;;18.85;nan
71638;BME280;59485;43.542;-5.676;2023-06-05T06:37:31;101452.38;;;18.86;nan
71638;BME280;59485;43.542;-5.676;2023-06-05T06:39:57;101448.06;;;18.90;nan
71638;BME280;59485;43.542;-5.676;2023-06-05T06:42:24;101452.75;;;18.90;nan
71638;BME280;59485;43.542;-5.676;2023-06-05T06:44:49;101476.09;;;19.07;nan
71638;BME280;59485;43.542;-5.676;2023-06-05T06:47:23;101440.13;;;18.94;nan
71638;BME280;59485;43.542;-5.676;2023-06-05T06:49:50;101466.00;;;19.13;nan
71638;BME280;59485;43.542;-5.676;2023-06-05T06:52:17;101474.66;;;19.23;nan
71638;BME280;59485;43.542;-5.676;2023-06-05T06:54:44;101452.97;;;19.13;nan
71638;BME280;59485;43.542;-5.676;2023-06-05T06:57:09;101471.59;;;19.31;nan
71638;BME280;59485;43.542;-5.676;2023-06-05T06:59:35;101462.00;;;19.27;nan
71638;BME280;59485;43.542;-5.676;2023-06-05T07:02:15;101474.19;;;19.44;nan
71638;BME280;59485;43.542;-5.676;2023-06-05T07:04:42;101476.53;;;19.47;nan
71638;BME280;59485;43.542;-5.676;2023-06-05T07:07:13;101479.97;;;19.49;nan
71638;BME280;59485;43.542;-5.676;2023-06-05T07:09:43;101475.16;;;19.56;nan
71638;BME280;59485;43.542;-5.676;2023-06-05T07:12:11;101484.13;;;19.58;nan
71638;BME280;59485;43.542;-5.676;2023-06-05T07:14:38;101472.19;;;19.69;nan
71638;BME280;59485;43.542;-5.676;2023-06-05T07:17:04;101475.78;;;19.76;nan
71638;BME280;59485;43.542;-5.676;2023-06-05T07:19:33;101474.81;;;19.82;nan
71638;BME280;59485;43.542;-5.676;2023-06-05T07:22:01;101462.13;;;19.86;nan
71638;BME280;59485;43.542;-5.676;2023-06-05T07:24:29;101443.59;;;19.80;nan
71638;BME280;59485;43.542;-5.676;2023-06-05T07:26:57;101455.03;;;19.91;nan
71638;BME280;59485;43.542;-5.676;2023-06-05T07:29:23;101469.34;;;20.06;nan
71638;BME280;59485;43.542;-5.676;2023-06-05T07:31:54;101457.00;;;20.02;nan
71638;BME280;59485;43.542;-5.676;2023-06-05T07:34:23;101463.25;;;19.97;nan
71638;BME280;59485;43.542;-5.676;2023-06-05T07:36:53;101468.44;;;20.12;nan
71638;BME280;59485;43.542;-5.676;2023-06-05T07:39:22;101469.00;;;20.14;nan
71638;BME280;59485;43.542;-5.676;2023-06-05T07:41:51;101471.72;;;20.20;nan
71638;BME280;59485;43.542;-5.676;2023-06-05T07:44:19;101459.03;;;19.95;nan
71638;BME280;59485;43.542;-5.676;2023-06-05T07:46:47;101444.28;;;19.94;nan
71638;BME280;59485;43.542;-5.676;2023-06-05T07:49:13;101470.25;;;20.18;nan
71638;BME280;59485;43.542;-5.676;2023-06-05T07:51:39;101471.91;;;20.07;nan
71638;BME280;59485;43.542;-5.676;2023-06-05T07:54:07;101467.56;;;20.11;nan
71638;BME280;59485;43.542;-5.676;2023-06-05T07:56:33;101466.50;;;20.12;nan
71638;BME280;59485;43.542;-5.676;2023-06-05T07:59:00;101477.13;;;20.15;nan
71638;BME280;59485;43.542;-5.676;2023-06-05T08:01:28;101475.78;;;20.06;nan
71638;BME280;59485;43.542;-5.676;2023-06-05T08:03:54;101480.78;;;20.16;nan
71638;BME280;59485;43.542;-5.676;2023-06-05T08:06:20;101487.81;;;20.18;nan
71638;BME280;59485;43.542;-5.676;2023-06-05T08:08:46;101483.97;;;20.31;nan
71638;BME280;59485;43.542;-5.676;2023-06-05T08:11:12;101481.13;;;20.38;nan
71638;BME280;59485;43.542;-5.676;2023-06-05T08:13:38;101482.25;;;20.48;nan
71638;BME280;59485;43.542;-5.676;2023-06-05T08:16:04;101468.22;;;20.55;nan
71638;BME280;59485;43.542;-5.676;2023-06-05T08:18:30;101455.25;;;20.19;nan
71638;BME280;59485;43.542;-5.676;2023-06-05T08:20:55;101477.25;;;20.39;nan
71638;BME280;59485;43.542;-5.676;2023-06-05T08:23:21;101479.59;;;20.53;nan
71638;BME280;59485;43.542;-5.676;2023-06-05T08:25:46;101470.00;;;20.49;nan
71638;BME280;59485;43.542;-5.676;2023-06-05T08:28:14;101482.41;;;20.77;nan
71638;BME280;59485;43.542;-5.676;2023-06-05T08:30:41;101457.81;;;20.62;nan
71638;BME280;59485;43.542;-5.676;2023-06-05T08:33:06;101474.13;;;20.58;nan
71638;BME280;59485;43.542;-5.676;2023-06-05T08:35:32;101475.72;;;20.54;nan
71638;BME280;59485;43.542;-5.676;2023-06-05T08:37:57;101474.47;;;20.50;nan
71638;BME280;59485;43.542;-5.676;2023-06-05T08:40:26;101470.53;;;20.70;nan
71638;BME280;59485;43.542;-5.676;2023-06-05T08:42:54;101457.69;;;20.69;nan
71638;BME280;59485;43.542;-5.676;2023-06-05T08:45:19;101452.00;;;20.64;nan
71638;BME280;59485;43.542;-5.676;2023-06-05T08:47:49;101457.09;;;20.67;nan
71638;BME280;59485;43.542;-5.676;2023-06-05T08:50:16;101466.19;;;20.74;nan
71638;BME280;59485;43.542;-5.676;2023-06-05T08:52:42;101445.69;;;20.56;nan
71638;BME280;59485;43.542;-5.676;2023-06-05T08:55:08;101469.31;;;20.66;nan
71638;BME280;59485;43.542;-5.676;2023-06-05T08:57:35;101471.84;;;20.67;nan
71638;BME280;59485;43.542;-5.676;2023-06-05T09:00:04;101456.47;;;20.65;nan
71638;BME280;59485;43.542;-5.676;2023-06-05T09:02:33;101462.25;;;20.51;nan
71638;BME280;59485;43.542;-5.676;2023-06-05T09:04:59;101472.84;;;20.73;nan
71638;BME280;59485;43.542;-5.676;2023-06-05T09:07:29;101461.69;;;20.73;nan
71638;BME280;59485;43.542;-5.676;2023-06-05T09:09:57;101444.72;;;20.63;nan
71638;BME280;59485;43.542;-5.676;2023-06-05T09:12:22;101416.84;;;20.63;nan
71638;BME280;59485;43.542;-5.676;2023-06-05T09:14:49;101453.44;;;20.78;nan
71638;BME280;59485;43.542;-5.676;2023-06-05T09:17:15;101460.59;;;20.85;nan
71638;BME280;59485;43.542;-5.676;2023-06-05T09:19:42;101458.19;;;20.66;nan
71638;BME280;59485;43.542;-5.676;2023-06-05T09:22:10;101452.00;;;20.64;nan
71638;BME280;59485;43.542;-5.676;2023-06-05T09:24:39;101448.38;;;20.75;nan
71638;BME280;59485;43.542;-5.676;2023-06-05T09:27:16;101459.63;;;20.68;nan
71638;BME280;59485;43.542;-5.676;2023-06-05T09:29:42;101451.03;;;20.70;nan
71638;BME280;59485;43.542;-5.676;2023-06-05T09:32:16;101455.75;;;20.81;nan
71638;BME280;59485;43.542;-5.676;2023-06-05T09:34:43;101468.97;;;20.85;nan
71638;BME280;59485;43.542;-5.676;2023-06-05T09:37:11;101456.63;;;20.93;nan
71638;BME280;59485;43.542;-5.676;2023-06-05T09:39:42;101467.03;;;20.97;nan
71638;BME280;59485;43.542;-5.676;2023-06-05T09:42:11;101464.00;;;20.99;nan
71638;BME280;59485;43.542;-5.676;2023-06-05T09:44:37;101452.63;;;21.01;nan
71638;BME280;59485;43.542;-5.676;2023-06-05T09:47:08;101462.66;;;21.13;nan
71638;BME280;59485;43.542;-5.676;2023-06-05T09:52:08;101457.47;;;20.93;nan
71638;BME280;59485;43.542;-5.676;2023-06-05T09:54:37;101460.13;;;20.88;nan
71638;BME280;59485;43.542;-5.676;2023-06-05T09:57:07;101453.84;;;20.93;nan
71638;BME280;59485;43.542;-5.676;2023-06-05T09:59:50;101455.88;;;21.09;nan
71638;BME280;59485;43.542;-5.676;2023-06-05T10:02:17;101452.84;;;20.99;nan
71638;BME280;59485;43.542;-5.676;2023-06-05T10:04:48;101459.16;;;21.06;nan
71638;BME280;59485;43.542;-5.676;2023-06-05T10:07:13;101469.31;;;21.12;nan
71638;BME280;59485;43.542;-5.676;2023-06-05T10:09:40;101463.78;;;21.01;nan
71638;BME280;59485;43.542;-5.676;2023-06-05T10:12:07;101464.00;;;20.99;nan
71638;BME280;59485;43.542;-5.676;2023-06-05T10:14:35;101456.50;;;20.88;nan
71638;BME280;59485;43.542;-5.676;2023-06-05T10:17:02;101466.91;;;21.04;nan
71638;BME280;59485;43.542;-5.676;2023-06-05T10:19:27;101462.31;;;21.21;nan
71638;BME280;59485;43.542;-5.676;2023-06-05T10:21:53;101447.28;;;20.99;nan
71638;BME280;59485;43.542;-5.676;2023-06-05T10:24:25;101453.94;;;20.86;nan
71638;BME280;59485;43.542;-5.676;2023-06-05T10:27:10;101457.44;;;21.05;nan
71638;BME280;59485;43.542;-5.676;2023-06-05T10:38:24;101464.00;;;20.99;nan
71638;BME280;59485;43.542;-5.676;2023-06-05T10:40:55;101466.66;;;21.06;nan
71638;BME280;59485;43.542;-5.676;2023-06-05T10:45:51;101455.78;;;20.92;nan
71638;BME280;59485;43.542;-5.676;2023-06-05T10:48:17;101470.66;;;20.98;nan
71638;BME280;59485;43.542;-5.676;2023-06-05T10:50:43;101453.34;;;20.96;nan
71638;BME280;59485;43.542;-5.676;2023-06-05T10:53:46;101459.19;;;21.18;nan
71638;BME280;59485;43.542;-5.676;2023-06-05T10:59:49;101467.91;;;21.21;nan
71638;BME280;59485;43.542;-5.676;2023-06-05T11:54:51;101421.06;;;21.47;nan
71638;BME280;59485;43.542;-5.676;2023-06-05T11:57:46;101427.28;;;21.37;nan
71638;BME280;59485;43.542;-5.676;2023-06-05T12:08:25;101421.91;;;21.12;nan
71638;BME280;59485;43.542;-5.676;2023-06-05T12:10:55;101429.94;;;21.32;nan
71638;BME280;59485;43.542;-5.676;2023-06-05T12:13:22;101420.63;;;21.26;nan
71638;BME280;59485;43.542;-5.676;2023-06-05T12:15:58;101422.41;;;21.44;nan
71638;BME280;59485;43.542;-5.676;2023-06-05T12:18:33;101418.66;;;21.67;nan
71638;BME280;59485;43.542;-5.676;2023-06-05T12:20:59;101401.59;;;21.63;nan
71638;BME280;59485;43.542;-5.676;2023-06-05T12:23:25;101412.69;;;21.47;nan
71638;BME280;59485;43.542;-5.676;2023-06-05T12:26:01;101401.78;;;21.45;nan
71638;BME280;59485;43.542;-5.676;2023-06-05T12:28:29;101389.06;;;21.38;nan
71638;BME280;59485;43.542;-5.676;2023-06-05T12:31:05;101391.41;;;21.29;nan
71638;BME280;59485;43.542;-5.676;2023-06-05T12:33:31;101368.69;;;21.14;nan
71638;BME280;59485;43.542;-5.676;2023-06-05T12:36:07;101399.00;;;21.45;nan
71638;BME280;59485;43.542;-5.676;2023-06-05T12:38:39;101395.97;;;21.47;nan
71638;BME280;59485;43.542;-5.676;2023-06-05T12:41:09;101372.56;;;21.36;nan
71638;BME280;59485;43.542;-5.676;2023-06-05T12:43:35;101386.38;;;21.43;nan
71638;BME280;59485;43.542;-5.676;2023-06-05T12:46:01;101373.69;;;21.63;nan
71638;BME280;59485;43.542;-5.676;2023-06-05T12:48:27;101377.13;;;21.54;nan
71638;BME280;59485;43.542;-5.676;2023-06-05T12:50:55;101359.16;;;21.50;nan
71638;BME280;59485;43.542;-5.676;2023-06-05T12:53:21;101374.72;;;21.46;nan
71638;BME280;59485;43.542;-5.676;2023-06-05T12:55:47;101349.19;;;21.25;nan
71638;BME280;59485;43.542;-5.676;2023-06-05T12:58:12;101379.94;;;21.42;nan
71638;BME280;59485;43.542;-5.676;2023-06-05T13:00:38;101382.31;;;21.62;nan
71638;BME280;59485;43.542;-5.676;2023-06-05T13:03:07;101379.41;;;21.57;nan
71638;BME280;59485;43.542;-5.676;2023-06-05T13:05:32;101369.53;;;21.66;nan
71638;BME280;59485;43.542;-5.676;2023-06-05T13:07:58;101364.88;;;21.55;nan
71638;BME280;59485;43.542;-5.676;2023-06-05T13:10:24;101362.41;;;21.58;nan
71638;BME280;59485;43.542;-5.676;2023-06-05T13:12:50;101358.72;;;21.69;nan
71638;BME280;59485;43.542;-5.676;2023-06-05T13:15:15;101365.25;;;21.75;nan
71638;BME280;59485;43.542;-5.676;2023-06-05T13:17:41;101370.28;;;21.90;nan
71638;BME280;59485;43.542;-5.676;2023-06-05T13:20:07;101380.00;;;22.16;nan
71638;BME280;59485;43.542;-5.676;2023-06-05T13:22:40;101362.66;;;21.85;nan
71638;BME280;59485;43.542;-5.676;2023-06-05T13:25:06;101357.97;;;22.02;nan
71638;BME280;59485;43.542;-5.676;2023-06-05T13:27:33;101357.00;;;21.97;nan
71638;BME280;59485;43.542;-5.676;2023-06-05T13:29:59;101355.88;;;22.10;nan
71638;BME280;59485;43.542;-5.676;2023-06-05T13:32:30;101341.59;;;21.94;nan
71638;BME280;59485;43.542;-5.676;2023-06-05T13:35:07;101311.69;;;22.23;nan
71638;BME280;59485;43.542;-5.676;2023-06-05T13:37:33;101349.22;;;22.27;nan
71638;BME280;59485;43.542;-5.676;2023-06-05T13:39:58;101321.19;;;22.05;nan
71638;BME280;59485;43.542;-5.676;2023-06-05T13:42:24;101322.22;;;21.88;nan
71638;BME280;59485;43.542;-5.676;2023-06-05T13:44:50;101336.47;;;22.20;nan
71638;BME280;59485;43.542;-5.676;2023-06-05T13:47:15;101328.03;;;22.15;nan
71638;BME280;59485;43.542;-5.676;2023-06-05T13:49:50;101306.09;;;22.23;nan
71638;BME280;59485;43.542;-5.676;2023-06-05T14:01:12;101289.25;;;22.35;nan
71638;BME280;59485;43.542;-5.676;2023-06-05T14:17:13;101319.75;;;23.13;nan
71638;BME280;59485;43.542;-5.676;2023-06-05T14:19:39;101301.56;;;23.38;nan
71638;BME280;59485;43.542;-5.676;2023-06-05T14:24:31;101273.25;;;23.07;nan
71638;BME280;59485;43.542;-5.676;2023-06-05T14:26:56;101276.94;;;22.91;nan
71638;BME280;59485;43.542;-5.676;2023-06-05T14:29:25;101274.91;;;23.30;nan
71638;BME280;59485;43.542;-5.676;2023-06-05T14:32:00;101262.09;;;23.34;nan
71638;BME280;59485;43.542;-5.676;2023-06-05T14:34:25;101302.25;;;23.23;nan
71638;BME280;59485;43.542;-5.676;2023-06-05T14:36:54;101293.38;;;23.31;nan
71638;BME280;59485;43.542;-5.676;2023-06-05T14:39:19;101285.66;;;23.16;nan
71638;BME280;59485;43.542;-5.676;2023-06-05T14:41:46;101283.69;;;23.39;nan
71638;BME280;59485;43.542;-5.676;2023-06-05T14:44:12;101265.78;;;23.40;nan
71638;BME280;59485;43.542;-5.676;2023-06-05T14:46:37;101305.38;;;23.75;nan
71638;BME280;59485;43.542;-5.676;2023-06-05T14:49:03;101285.97;;;23.42;nan